BAW81 EGLL-DGAA
Flight info
| Callsign | BAW81 |
|---|---|
| Flight time | 6h 9m |
| Altitude | 35000 |
| Route | MODMI M185 MID L151 SITET UN859 SOPIL DCT BALAN DCT EVPOK DCT NARAK DCT GAI DCT LOMRA DCT ROCAN DCT PUMAL DCT XEPLA DCT BCN DCT GARBI DCT LARPA DCT TOLSO DCT LISAS DCT MJV N859 MOGIL UB31 ZEM/N0487F360 UZ333 KAHIL UB726 GHA/N0486F370 UA615 TMS UA604 EREBO/N0491F380 DCT MIGNI DCT ABALA DCT IPUTA DCT TATAT DCT KILMO DCT LITEX LITEX1B |
| Aircraft | A35K/H-SDE2E3GHIJ3J4J5LM1ORWXY/LB1D1 |
Departure
| Time | 2026-05-08 08:57 |
|---|---|
| Airport | London Heathrow Airport (EGLL) |
Arrival
| Time | 2026-05-08 15:06 |
|---|---|
| Airport | Kotoka International Airport (DGAA) |
| Time | Latitude | Longitude | Altitude | Speed | Heading |
|---|---|---|---|---|---|
| 2026-05-08 08:13 | 51.47397 | -0.47496 | 92 ft | 0 kts | 270° |
| 2026-05-08 08:44 | 51.47397 | -0.47461 | 93 ft | 4 kts | 269° |
| 2026-05-08 08:44 | 51.47398 | -0.47417 | 92 ft | 4 kts | 269° |
| 2026-05-08 08:44 | 51.47401 | -0.47385 | 92 ft | 2 kts | 240° |
| 2026-05-08 08:45 | 51.47411 | -0.47365 | 93 ft | 3 kts | 206° |
| 2026-05-08 08:45 | 51.47423 | -0.47358 | 93 ft | 2 kts | 190° |
| 2026-05-08 08:45 | 51.47434 | -0.47356 | 92 ft | 2 kts | 183° |
| 2026-05-08 08:45 | 51.47437 | -0.47356 | 91 ft | 0 kts | 182° |
| 2026-05-08 08:49 | 51.47436 | -0.47356 | 91 ft | 0 kts | 182° |
| 2026-05-08 08:49 | 51.47425 | -0.47356 | 92 ft | 3 kts | 182° |
| 2026-05-08 08:49 | 51.47399 | -0.47356 | 93 ft | 5 kts | 179° |
| 2026-05-08 08:49 | 51.47356 | -0.47355 | 93 ft | 7 kts | 180° |
| 2026-05-08 08:50 | 51.47299 | -0.47355 | 92 ft | 9 kts | 180° |
| 2026-05-08 08:50 | 51.47228 | -0.47355 | 93 ft | 11 kts | 179° |
| 2026-05-08 08:50 | 51.47145 | -0.47354 | 95 ft | 13 kts | 179° |
| 2026-05-08 08:50 | 51.47052 | -0.47353 | 94 ft | 14 kts | 179° |
| 2026-05-08 08:51 | 51.46947 | -0.47352 | 92 ft | 14 kts | 179° |
| 2026-05-08 08:51 | 51.46870 | -0.47351 | 92 ft | 10 kts | 179° |
| 2026-05-08 08:51 | 51.46793 | -0.47351 | 95 ft | 12 kts | 183° |
| 2026-05-08 08:51 | 51.46748 | -0.47421 | 96 ft | 10 kts | 261° |
| 2026-05-08 08:52 | 51.46745 | -0.47544 | 95 ft | 12 kts | 270° |
| 2026-05-08 08:52 | 51.46745 | -0.47690 | 92 ft | 14 kts | 270° |
| 2026-05-08 08:52 | 51.46744 | -0.47858 | 92 ft | 16 kts | 270° |
| 2026-05-08 08:52 | 51.46744 | -0.48041 | 92 ft | 16 kts | 270° |
| 2026-05-08 08:53 | 51.46744 | -0.48230 | 93 ft | 17 kts | 270° |
| 2026-05-08 08:53 | 51.46744 | -0.48429 | 92 ft | 14 kts | 269° |
| 2026-05-08 08:53 | 51.46744 | -0.48552 | 92 ft | 11 kts | 270° |
| 2026-05-08 08:53 | 51.46744 | -0.48623 | 92 ft | 1 kts | 270° |
| 2026-05-08 08:54 | 51.46744 | -0.48648 | 92 ft | 3 kts | 270° |
| 2026-05-08 08:54 | 51.46737 | -0.48696 | 93 ft | 5 kts | 247° |
| 2026-05-08 08:54 | 51.46707 | -0.48733 | 96 ft | 6 kts | 202° |
| 2026-05-08 08:54 | 51.46657 | -0.48743 | 95 ft | 8 kts | 185° |
| 2026-05-08 08:55 | 51.46595 | -0.48769 | 93 ft | 10 kts | 198° |
| 2026-05-08 08:55 | 51.46522 | -0.48774 | 95 ft | 11 kts | 159° |
| 2026-05-08 08:55 | 51.46480 | -0.48675 | 95 ft | 12 kts | 98° |
| 2026-05-08 08:55 | 51.46479 | -0.48612 | 95 ft | 0 kts | 90° |
| 2026-05-08 08:56 | 51.46479 | -0.48596 | 94 ft | 2 kts | 90° |
| 2026-05-08 08:56 | 51.46479 | -0.48557 | 92 ft | 7 kts | 90° |
| 2026-05-08 08:56 | 51.46479 | -0.48140 | 97 ft | 71 kts | 90° |
| 2026-05-08 08:56 | 51.46482 | -0.47009 | 97 ft | 130 kts | 89° |
| 2026-05-08 08:57 | 51.46497 | -0.45286 | 201 ft | 171 kts | 88° |
| 2026-05-08 08:57 | 51.46527 | -0.43231 | 458 ft | 198 kts | 89° |
| 2026-05-08 08:57 | 51.46461 | -0.41023 | 1290 ft | 194 kts | 108° |
| 2026-05-08 08:57 | 51.45742 | -0.39196 | 1823 ft | 204 kts | 140° |
| 2026-05-08 08:58 | 51.44443 | -0.38127 | 2169 ft | 219 kts | 162° |
| 2026-05-08 08:58 | 51.42921 | -0.37388 | 2525 ft | 238 kts | 163° |
| 2026-05-08 08:58 | 51.41311 | -0.36625 | 3131 ft | 244 kts | 164° |
| 2026-05-08 08:58 | 51.39607 | -0.36312 | 3787 ft | 250 kts | 184° |
| 2026-05-08 08:59 | 51.37924 | -0.37078 | 4478 ft | 254 kts | 202° |
| 2026-05-08 08:59 | 51.36320 | -0.38311 | 5181 ft | 257 kts | 205° |
| 2026-05-08 08:59 | 51.34707 | -0.39605 | 5772 ft | 259 kts | 205° |
| 2026-05-08 08:59 | 51.33092 | -0.40884 | 5986 ft | 260 kts | 205° |
| 2026-05-08 09:00 | 51.31472 | -0.42156 | 5986 ft | 259 kts | 205° |
| 2026-05-08 09:00 | 51.29857 | -0.43430 | 5988 ft | 258 kts | 205° |
| 2026-05-08 09:00 | 51.28247 | -0.44701 | 5974 ft | 258 kts | 205° |
| 2026-05-08 09:00 | 51.26639 | -0.45973 | 5975 ft | 258 kts | 205° |
| 2026-05-08 09:01 | 51.25030 | -0.47264 | 5980 ft | 259 kts | 205° |
| 2026-05-08 09:01 | 51.23423 | -0.48551 | 5972 ft | 259 kts | 205° |
| 2026-05-08 09:01 | 51.21808 | -0.49840 | 6129 ft | 260 kts | 205° |
| 2026-05-08 09:01 | 51.20180 | -0.51111 | 6690 ft | 261 kts | 205° |
| 2026-05-08 09:02 | 51.18546 | -0.52371 | 7446 ft | 262 kts | 205° |
| 2026-05-08 09:02 | 51.16896 | -0.53638 | 8147 ft | 264 kts | 205° |
| 2026-05-08 09:02 | 51.15225 | -0.54921 | 8828 ft | 268 kts | 205° |
| 2026-05-08 09:02 | 51.13538 | -0.56220 | 9523 ft | 271 kts | 206° |
| 2026-05-08 09:03 | 51.11825 | -0.57540 | 10210 ft | 275 kts | 206° |
| 2026-05-08 09:03 | 51.10082 | -0.58884 | 10568 ft | 290 kts | 206° |
| 2026-05-08 09:03 | 51.08158 | -0.60136 | 10828 ft | 307 kts | 198° |
| 2026-05-08 09:03 | 51.06013 | -0.60890 | 11096 ft | 324 kts | 187° |
| 2026-05-08 09:04 | 51.03700 | -0.60881 | 11339 ft | 342 kts | 174° |
| 2026-05-08 09:04 | 51.01336 | -0.59985 | 11590 ft | 356 kts | 163° |
| 2026-05-08 09:04 | 50.98981 | -0.58618 | 12050 ft | 364 kts | 160° |
| 2026-05-08 09:04 | 50.96637 | -0.57047 | 12588 ft | 368 kts | 158° |
| 2026-05-08 09:05 | 50.94287 | -0.55397 | 13123 ft | 372 kts | 158° |
| 2026-05-08 09:05 | 50.91902 | -0.53722 | 13666 ft | 375 kts | 158° |
| 2026-05-08 09:05 | 50.89500 | -0.52065 | 14151 ft | 378 kts | 159° |
| 2026-05-08 09:05 | 50.87070 | -0.50423 | 14645 ft | 381 kts | 159° |
| 2026-05-08 09:06 | 50.84618 | -0.48794 | 15137 ft | 383 kts | 159° |
| 2026-05-08 09:06 | 50.82148 | -0.47168 | 15652 ft | 386 kts | 159° |
| 2026-05-08 09:06 | 50.79660 | -0.45540 | 16129 ft | 388 kts | 159° |
| 2026-05-08 09:06 | 50.77184 | -0.43924 | 16625 ft | 391 kts | 159° |
| 2026-05-08 09:07 | 50.74664 | -0.42280 | 17122 ft | 393 kts | 159° |
| 2026-05-08 09:07 | 50.72125 | -0.40625 | 17606 ft | 395 kts | 159° |
| 2026-05-08 09:07 | 50.69579 | -0.38966 | 18082 ft | 398 kts | 159° |
| 2026-05-08 09:07 | 50.67008 | -0.37292 | 18553 ft | 401 kts | 159° |
| 2026-05-08 09:08 | 50.64419 | -0.35607 | 18959 ft | 403 kts | 159° |
| 2026-05-08 09:08 | 50.61822 | -0.33919 | 19380 ft | 405 kts | 159° |
| 2026-05-08 09:08 | 50.59203 | -0.32219 | 19794 ft | 408 kts | 159° |
| 2026-05-08 09:08 | 50.56571 | -0.30512 | 20220 ft | 410 kts | 159° |
| 2026-05-08 09:09 | 50.53919 | -0.28795 | 20642 ft | 413 kts | 159° |
| 2026-05-08 09:09 | 50.51257 | -0.27074 | 21062 ft | 415 kts | 159° |
| 2026-05-08 09:09 | 50.48577 | -0.25342 | 21487 ft | 418 kts | 159° |
| 2026-05-08 09:09 | 50.45916 | -0.23626 | 21893 ft | 420 kts | 159° |
| 2026-05-08 09:10 | 50.43200 | -0.21876 | 22326 ft | 423 kts | 159° |
| 2026-05-08 09:10 | 50.40465 | -0.20115 | 22731 ft | 425 kts | 159° |
| 2026-05-08 09:10 | 50.37717 | -0.18349 | 23186 ft | 428 kts | 159° |
| 2026-05-08 09:10 | 50.34954 | -0.16576 | 23613 ft | 430 kts | 159° |
| 2026-05-08 09:11 | 50.32176 | -0.14795 | 23946 ft | 434 kts | 159° |
| 2026-05-08 09:11 | 50.30317 | -0.13604 | 24124 ft | 437 kts | 159° |
| 2026-05-08 09:11 | 50.27494 | -0.11798 | 24425 ft | 440 kts | 159° |
| 2026-05-08 09:11 | 50.24642 | -0.09976 | 24731 ft | 444 kts | 159° |
| 2026-05-08 09:12 | 50.21774 | -0.08146 | 25025 ft | 448 kts | 159° |
| 2026-05-08 09:12 | 50.18878 | -0.06279 | 25319 ft | 452 kts | 158° |
| 2026-05-08 09:12 | 50.15976 | -0.04302 | 25531 ft | 457 kts | 157° |
| 2026-05-08 09:12 | 50.13065 | -0.02255 | 25843 ft | 461 kts | 156° |
| 2026-05-08 09:13 | 50.10092 | -0.00352 | 26206 ft | 462 kts | 162° |
| 2026-05-08 09:13 | 50.07033 | 0.01099 | 26803 ft | 458 kts | 165° |
| 2026-05-08 09:13 | 50.03956 | 0.02422 | 27134 ft | 461 kts | 167° |
| 2026-05-08 09:13 | 50.00831 | 0.03685 | 27415 ft | 465 kts | 167° |
| 2026-05-08 09:14 | 49.97692 | 0.04913 | 27729 ft | 468 kts | 167° |
| 2026-05-08 09:14 | 49.94502 | 0.06147 | 27939 ft | 474 kts | 168° |
| 2026-05-08 09:14 | 49.91293 | 0.07386 | 28170 ft | 479 kts | 168° |
| 2026-05-08 09:14 | 49.88042 | 0.08646 | 28495 ft | 481 kts | 168° |
| 2026-05-08 09:15 | 49.84787 | 0.09912 | 28783 ft | 485 kts | 168° |
| 2026-05-08 09:15 | 49.81542 | 0.11177 | 29052 ft | 488 kts | 168° |
| 2026-05-08 09:15 | 49.78244 | 0.12464 | 29328 ft | 491 kts | 168° |
| 2026-05-08 09:15 | 49.74921 | 0.13760 | 29597 ft | 494 kts | 168° |
| 2026-05-08 09:16 | 49.71562 | 0.15070 | 29728 ft | 500 kts | 168° |
| 2026-05-08 09:16 | 49.68166 | 0.16390 | 29914 ft | 504 kts | 168° |
| 2026-05-08 09:16 | 49.64756 | 0.17735 | 30200 ft | 506 kts | 168° |
| 2026-05-08 09:16 | 49.61342 | 0.19108 | 30427 ft | 508 kts | 168° |
| 2026-05-08 09:17 | 49.57912 | 0.20500 | 30658 ft | 510 kts | 168° |
| 2026-05-08 09:17 | 49.54471 | 0.21896 | 30916 ft | 511 kts | 168° |
| 2026-05-08 09:17 | 49.51023 | 0.23292 | 31194 ft | 512 kts | 168° |
| 2026-05-08 09:17 | 49.47548 | 0.24691 | 31207 ft | 519 kts | 168° |
| 2026-05-08 09:18 | 49.44045 | 0.26095 | 31484 ft | 519 kts | 168° |
| 2026-05-08 09:18 | 49.40600 | 0.27473 | 31880 ft | 517 kts | 169° |
| 2026-05-08 09:18 | 49.37116 | 0.28865 | 32221 ft | 516 kts | 169° |
| 2026-05-08 09:18 | 49.33640 | 0.30251 | 32537 ft | 516 kts | 169° |
| 2026-05-08 09:19 | 49.30162 | 0.31636 | 32834 ft | 515 kts | 169° |
| 2026-05-08 09:19 | 49.26692 | 0.33057 | 33008 ft | 518 kts | 168° |
| 2026-05-08 09:19 | 49.23213 | 0.34523 | 33271 ft | 518 kts | 168° |
| 2026-05-08 09:19 | 49.19742 | 0.36003 | 33596 ft | 517 kts | 168° |
| 2026-05-08 09:20 | 49.16278 | 0.37480 | 33919 ft | 516 kts | 168° |
| 2026-05-08 09:20 | 49.12862 | 0.38930 | 34203 ft | 515 kts | 168° |
| 2026-05-08 09:20 | 49.09405 | 0.40390 | 34520 ft | 513 kts | 168° |
| 2026-05-08 09:20 | 49.05971 | 0.41833 | 34802 ft | 511 kts | 168° |
| 2026-05-08 09:21 | 49.02532 | 0.43271 | 34983 ft | 513 kts | 168° |
| 2026-05-08 09:21 | 48.99084 | 0.44708 | 35045 ft | 517 kts | 168° |
| 2026-05-08 09:23 | 48.75003 | 0.54685 | 35044 ft | 512 kts | 169° |
| 2026-05-08 09:23 | 48.68100 | 0.57378 | 35034 ft | 512 kts | 169° |
| 2026-05-08 09:24 | 48.61179 | 0.60049 | 35027 ft | 514 kts | 169° |
| 2026-05-08 09:24 | 48.54239 | 0.62739 | 35030 ft | 515 kts | 169° |
| 2026-05-08 09:25 | 48.47297 | 0.65481 | 35028 ft | 516 kts | 168° |
| 2026-05-08 09:25 | 48.40356 | 0.68322 | 35026 ft | 516 kts | 168° |
| 2026-05-08 09:26 | 48.33464 | 0.71141 | 35030 ft | 517 kts | 168° |
| 2026-05-08 09:26 | 48.26508 | 0.73961 | 35029 ft | 517 kts | 169° |
| 2026-05-08 09:27 | 48.19552 | 0.76747 | 35017 ft | 517 kts | 169° |
| 2026-05-08 09:27 | 48.12589 | 0.79470 | 35021 ft | 517 kts | 169° |
| 2026-05-08 09:28 | 48.05632 | 0.82182 | 35019 ft | 517 kts | 169° |
| 2026-05-08 09:28 | 47.98675 | 0.84898 | 35037 ft | 517 kts | 169° |
| 2026-05-08 09:29 | 47.91722 | 0.87609 | 35022 ft | 515 kts | 169° |
| 2026-05-08 09:29 | 47.84836 | 0.90289 | 35019 ft | 515 kts | 169° |
| 2026-05-08 09:30 | 47.77900 | 0.92986 | 35009 ft | 515 kts | 169° |
| 2026-05-08 09:30 | 47.70966 | 0.95665 | 35019 ft | 515 kts | 169° |
| 2026-05-08 09:31 | 47.64030 | 0.98336 | 35018 ft | 515 kts | 169° |
| 2026-05-08 09:31 | 47.57132 | 1.00988 | 35006 ft | 514 kts | 169° |
| 2026-05-08 09:32 | 47.50199 | 1.03647 | 35015 ft | 514 kts | 169° |
| 2026-05-08 09:32 | 47.43234 | 1.05998 | 35013 ft | 509 kts | 177° |
| 2026-05-08 09:33 | 47.36201 | 1.06373 | 34999 ft | 504 kts | 185° |
| 2026-05-08 09:33 | 47.29238 | 1.06214 | 35004 ft | 503 kts | 186° |
| 2026-05-08 09:34 | 47.22226 | 1.05988 | 35007 ft | 503 kts | 186° |
| 2026-05-08 09:34 | 47.15222 | 1.05796 | 34995 ft | 503 kts | 186° |
| 2026-05-08 09:35 | 47.08214 | 1.05628 | 35000 ft | 503 kts | 186° |
| 2026-05-08 09:35 | 47.01214 | 1.05465 | 34996 ft | 503 kts | 186° |
| 2026-05-08 09:36 | 46.94224 | 1.05191 | 34993 ft | 502 kts | 186° |
| 2026-05-08 09:36 | 46.87287 | 1.04865 | 34996 ft | 502 kts | 186° |
| 2026-05-08 09:37 | 46.80305 | 1.04551 | 34991 ft | 501 kts | 186° |
| 2026-05-08 09:37 | 46.73325 | 1.04250 | 34993 ft | 501 kts | 186° |
| 2026-05-08 09:38 | 46.66349 | 1.03956 | 34996 ft | 501 kts | 186° |
| 2026-05-08 09:38 | 46.59372 | 1.03660 | 34992 ft | 501 kts | 186° |
| 2026-05-08 09:39 | 46.52390 | 1.03574 | 34985 ft | 505 kts | 180° |
| 2026-05-08 09:39 | 46.45421 | 1.05315 | 34988 ft | 510 kts | 172° |
| 2026-05-08 09:40 | 46.38492 | 1.07625 | 34989 ft | 511 kts | 171° |
| 2026-05-08 09:40 | 46.31626 | 1.09981 | 34986 ft | 510 kts | 171° |
| 2026-05-08 09:41 | 46.24709 | 1.12313 | 34986 ft | 509 kts | 171° |
| 2026-05-08 09:41 | 46.17796 | 1.14610 | 34985 ft | 509 kts | 171° |
| 2026-05-08 09:42 | 46.10882 | 1.16896 | 34998 ft | 509 kts | 171° |
| 2026-05-08 09:42 | 46.03984 | 1.19172 | 35006 ft | 509 kts | 172° |
| 2026-05-08 09:43 | 45.97049 | 1.21452 | 34994 ft | 512 kts | 171° |
| 2026-05-08 09:43 | 45.90111 | 1.23730 | 34979 ft | 511 kts | 172° |
| 2026-05-08 09:44 | 45.83173 | 1.26003 | 34994 ft | 511 kts | 172° |
| 2026-05-08 09:44 | 45.76241 | 1.28267 | 34978 ft | 511 kts | 172° |
| 2026-05-08 09:45 | 45.69350 | 1.30513 | 34989 ft | 510 kts | 172° |
| 2026-05-08 09:45 | 45.62422 | 1.32765 | 34984 ft | 510 kts | 172° |
| 2026-05-08 09:46 | 45.55511 | 1.35005 | 34971 ft | 509 kts | 172° |
| 2026-05-08 09:46 | 45.48594 | 1.37243 | 34986 ft | 508 kts | 172° |
| 2026-05-08 09:47 | 45.41710 | 1.39464 | 34984 ft | 507 kts | 172° |
| 2026-05-08 09:47 | 45.34863 | 1.41666 | 34988 ft | 507 kts | 172° |
| 2026-05-08 09:48 | 45.27986 | 1.43873 | 34990 ft | 505 kts | 172° |
| 2026-05-08 09:48 | 45.21126 | 1.46069 | 34990 ft | 505 kts | 172° |
| 2026-05-08 09:49 | 45.14270 | 1.48258 | 34989 ft | 504 kts | 172° |
| 2026-05-08 09:49 | 45.07438 | 1.50437 | 34994 ft | 502 kts | 172° |
| 2026-05-08 09:50 | 45.00634 | 1.52599 | 34992 ft | 501 kts | 172° |
| 2026-05-08 09:50 | 44.93815 | 1.54761 | 34989 ft | 503 kts | 172° |
| 2026-05-08 09:51 | 44.87031 | 1.56906 | 34990 ft | 502 kts | 172° |
| 2026-05-08 09:51 | 44.80212 | 1.59058 | 34991 ft | 502 kts | 172° |
| 2026-05-08 09:52 | 44.73383 | 1.61205 | 34987 ft | 502 kts | 172° |
| 2026-05-08 09:52 | 44.66565 | 1.63346 | 34987 ft | 502 kts | 172° |
| 2026-05-08 09:53 | 44.59735 | 1.65485 | 34966 ft | 502 kts | 172° |
| 2026-05-08 09:53 | 44.52945 | 1.67610 | 34983 ft | 499 kts | 172° |
| 2026-05-08 09:54 | 44.46167 | 1.69722 | 34995 ft | 498 kts | 172° |
| 2026-05-08 09:54 | 44.39390 | 1.71829 | 34974 ft | 497 kts | 172° |
| 2026-05-08 09:55 | 44.32699 | 1.73906 | 34984 ft | 494 kts | 173° |
| 2026-05-08 09:55 | 44.25980 | 1.75906 | 34985 ft | 492 kts | 175° |
| 2026-05-08 09:56 | 44.19230 | 1.77365 | 34977 ft | 490 kts | 177° |
| 2026-05-08 09:56 | 44.12489 | 1.78715 | 34983 ft | 488 kts | 177° |
| 2026-05-08 09:57 | 44.02421 | 1.80864 | 34983 ft | 488 kts | 176° |
| 2026-05-08 09:57 | 43.95763 | 1.82328 | 34976 ft | 485 kts | 176° |
| 2026-05-08 09:58 | 43.89095 | 1.83387 | 34980 ft | 479 kts | 181° |
| 2026-05-08 09:58 | 43.82438 | 1.83856 | 34980 ft | 478 kts | 182° |
| 2026-05-08 09:59 | 43.75792 | 1.84351 | 34977 ft | 477 kts | 181° |
| 2026-05-08 09:59 | 43.69163 | 1.84952 | 34968 ft | 477 kts | 181° |
| 2026-05-08 10:00 | 43.63652 | 1.85485 | 34969 ft | 477 kts | 181° |
| 2026-05-08 10:00 | 43.55957 | 1.86237 | 34972 ft | 476 kts | 181° |
| 2026-05-08 10:01 | 43.50431 | 1.86770 | 34968 ft | 475 kts | 181° |
| 2026-05-08 10:01 | 43.43872 | 1.87399 | 34967 ft | 475 kts | 181° |
| 2026-05-08 10:02 | 43.37281 | 1.88031 | 34963 ft | 473 kts | 181° |
| 2026-05-08 10:02 | 43.30708 | 1.88661 | 34966 ft | 472 kts | 181° |
| 2026-05-08 10:03 | 43.24154 | 1.89288 | 34968 ft | 472 kts | 181° |
| 2026-05-08 10:03 | 43.17602 | 1.89914 | 34966 ft | 471 kts | 181° |
| 2026-05-08 10:04 | 43.11112 | 1.90532 | 34970 ft | 470 kts | 181° |
| 2026-05-08 10:04 | 43.04577 | 1.91151 | 34963 ft | 471 kts | 181° |
| 2026-05-08 10:05 | 42.98006 | 1.91769 | 34951 ft | 473 kts | 181° |
| 2026-05-08 10:05 | 42.91446 | 1.92394 | 34958 ft | 471 kts | 181° |
| 2026-05-08 10:06 | 42.84953 | 1.93011 | 34959 ft | 471 kts | 181° |
| 2026-05-08 10:06 | 42.78414 | 1.93625 | 34966 ft | 471 kts | 181° |
| 2026-05-08 10:07 | 42.71874 | 1.94241 | 34964 ft | 471 kts | 181° |
| 2026-05-08 10:07 | 42.65339 | 1.94879 | 34966 ft | 472 kts | 180° |
| 2026-05-08 10:08 | 42.58821 | 1.96124 | 34975 ft | 474 kts | 176° |
| 2026-05-08 10:08 | 42.52310 | 1.97610 | 34981 ft | 473 kts | 176° |
| 2026-05-08 10:09 | 42.45822 | 1.99005 | 34991 ft | 472 kts | 177° |
| 2026-05-08 10:09 | 42.39370 | 2.00316 | 34997 ft | 471 kts | 177° |
| 2026-05-08 10:10 | 42.32878 | 2.01492 | 35006 ft | 468 kts | 180° |
| 2026-05-08 10:10 | 42.26404 | 2.02040 | 35005 ft | 465 kts | 182° |
| 2026-05-08 10:11 | 42.19927 | 2.02494 | 35010 ft | 466 kts | 182° |
| 2026-05-08 10:11 | 42.13453 | 2.03045 | 35014 ft | 466 kts | 181° |
| 2026-05-08 10:12 | 42.06974 | 2.03648 | 35018 ft | 466 kts | 181° |
| 2026-05-08 10:12 | 42.00500 | 2.04265 | 35016 ft | 467 kts | 181° |
| 2026-05-08 10:13 | 41.94055 | 2.04878 | 35015 ft | 467 kts | 181° |
| 2026-05-08 10:13 | 41.87577 | 2.05488 | 35021 ft | 466 kts | 181° |
| 2026-05-08 10:14 | 41.81093 | 2.06095 | 35017 ft | 466 kts | 181° |
| 2026-05-08 10:14 | 41.74616 | 2.06699 | 35011 ft | 466 kts | 181° |
| 2026-05-08 10:15 | 41.68168 | 2.07303 | 35013 ft | 463 kts | 181° |
| 2026-05-08 10:15 | 41.61747 | 2.07907 | 35012 ft | 462 kts | 181° |
| 2026-05-08 10:16 | 41.55322 | 2.08501 | 35029 ft | 462 kts | 181° |
| 2026-05-08 10:16 | 41.48907 | 2.09095 | 35023 ft | 461 kts | 181° |
| 2026-05-08 10:17 | 41.42506 | 2.09689 | 35047 ft | 461 kts | 181° |
| 2026-05-08 10:17 | 41.36145 | 2.10276 | 35051 ft | 461 kts | 181° |
| 2026-05-08 10:18 | 41.29754 | 2.11237 | 35047 ft | 466 kts | 173° |
| 2026-05-08 10:18 | 41.23451 | 2.13306 | 35048 ft | 466 kts | 171° |
| 2026-05-08 10:19 | 41.17177 | 2.15562 | 35046 ft | 467 kts | 170° |
| 2026-05-08 10:20 | 41.07764 | 2.18953 | 35039 ft | 467 kts | 170° |
| 2026-05-08 10:20 | 41.01486 | 2.21186 | 35037 ft | 467 kts | 170° |
| 2026-05-08 10:21 | 40.95206 | 2.23410 | 35034 ft | 467 kts | 170° |
| 2026-05-08 10:21 | 40.88954 | 2.25618 | 35039 ft | 467 kts | 171° |
| 2026-05-08 10:22 | 40.82657 | 2.27839 | 35033 ft | 469 kts | 171° |
| 2026-05-08 10:22 | 40.76345 | 2.30066 | 35036 ft | 470 kts | 171° |
| 2026-05-08 10:23 | 40.70001 | 2.32292 | 35036 ft | 472 kts | 171° |
| 2026-05-08 10:23 | 40.63682 | 2.34503 | 35034 ft | 472 kts | 171° |
| 2026-05-08 10:24 | 40.57328 | 2.36726 | 35028 ft | 472 kts | 171° |
| 2026-05-08 10:24 | 40.50982 | 2.38943 | 35034 ft | 472 kts | 171° |
| 2026-05-08 10:25 | 40.44638 | 2.41160 | 35023 ft | 472 kts | 171° |
| 2026-05-08 10:25 | 40.38287 | 2.43367 | 35032 ft | 471 kts | 171° |
| 2026-05-08 10:26 | 40.31960 | 2.45561 | 35031 ft | 470 kts | 171° |
| 2026-05-08 10:26 | 40.25632 | 2.47752 | 35026 ft | 470 kts | 171° |
| 2026-05-08 10:27 | 40.19334 | 2.49930 | 35022 ft | 469 kts | 171° |
| 2026-05-08 10:27 | 40.13030 | 2.52113 | 35026 ft | 468 kts | 172° |
| 2026-05-08 10:28 | 40.06737 | 2.54278 | 35020 ft | 468 kts | 172° |
| 2026-05-08 10:28 | 40.00430 | 2.56443 | 35021 ft | 468 kts | 172° |
| 2026-05-08 10:29 | 39.94138 | 2.58601 | 35020 ft | 468 kts | 172° |
| 2026-05-08 10:29 | 39.87869 | 2.60749 | 35011 ft | 468 kts | 172° |
| 2026-05-08 10:30 | 39.81564 | 2.62904 | 35004 ft | 468 kts | 172° |
| 2026-05-08 10:30 | 39.75261 | 2.65056 | 34997 ft | 468 kts | 172° |
| 2026-05-08 10:31 | 39.68972 | 2.67200 | 34979 ft | 467 kts | 172° |
| 2026-05-08 10:31 | 39.62674 | 2.69354 | 34992 ft | 468 kts | 172° |
| 2026-05-08 10:32 | 39.56368 | 2.71485 | 34994 ft | 468 kts | 172° |
| 2026-05-08 10:32 | 39.50063 | 2.73615 | 34992 ft | 467 kts | 173° |
| 2026-05-08 10:33 | 39.43769 | 2.75742 | 34993 ft | 467 kts | 173° |
| 2026-05-08 10:33 | 39.37521 | 2.77880 | 34999 ft | 468 kts | 172° |
| 2026-05-08 10:34 | 39.31226 | 2.80070 | 34971 ft | 467 kts | 172° |
| 2026-05-08 10:34 | 39.24965 | 2.82246 | 34997 ft | 465 kts | 173° |
| 2026-05-08 10:35 | 39.18707 | 2.84406 | 34998 ft | 464 kts | 173° |
| 2026-05-08 10:35 | 39.12469 | 2.86550 | 34997 ft | 464 kts | 173° |
| 2026-05-08 10:36 | 39.06266 | 2.88679 | 34983 ft | 464 kts | 173° |
| 2026-05-08 10:36 | 39.00035 | 2.90820 | 34991 ft | 463 kts | 173° |
| 2026-05-08 10:37 | 38.93814 | 2.92961 | 34987 ft | 463 kts | 173° |
| 2026-05-08 10:37 | 38.87590 | 2.95092 | 34985 ft | 463 kts | 173° |
| 2026-05-08 10:38 | 38.81364 | 2.97210 | 34984 ft | 463 kts | 173° |
| 2026-05-08 10:38 | 38.75143 | 2.99322 | 34983 ft | 462 kts | 173° |
| 2026-05-08 10:39 | 38.68962 | 3.01419 | 34977 ft | 462 kts | 173° |
| 2026-05-08 10:39 | 38.62747 | 3.03525 | 34977 ft | 462 kts | 173° |
| 2026-05-08 10:40 | 38.56520 | 3.05633 | 34959 ft | 462 kts | 174° |
| 2026-05-08 10:40 | 38.50276 | 3.07738 | 34977 ft | 464 kts | 174° |
| 2026-05-08 10:41 | 38.44025 | 3.09844 | 34981 ft | 464 kts | 174° |
| 2026-05-08 10:41 | 38.37781 | 3.11946 | 34979 ft | 464 kts | 174° |
| 2026-05-08 10:42 | 38.31571 | 3.14032 | 34976 ft | 464 kts | 174° |
| 2026-05-08 10:42 | 38.25324 | 3.16133 | 34979 ft | 464 kts | 174° |
| 2026-05-08 10:43 | 38.19075 | 3.18226 | 34975 ft | 464 kts | 174° |
| 2026-05-08 10:43 | 38.12829 | 3.20313 | 34975 ft | 464 kts | 174° |
| 2026-05-08 10:44 | 38.06556 | 3.22206 | 34982 ft | 461 kts | 176° |
| 2026-05-08 10:44 | 38.00277 | 3.23883 | 34983 ft | 461 kts | 177° |
| 2026-05-08 10:45 | 37.93996 | 3.25580 | 34989 ft | 461 kts | 176° |
| 2026-05-08 10:45 | 37.87756 | 3.27308 | 34980 ft | 462 kts | 176° |
| 2026-05-08 10:46 | 37.81462 | 3.29064 | 34989 ft | 463 kts | 176° |
| 2026-05-08 10:46 | 37.75167 | 3.30820 | 34992 ft | 463 kts | 176° |
| 2026-05-08 10:47 | 37.68872 | 3.32570 | 34995 ft | 463 kts | 177° |
| 2026-05-08 10:47 | 37.62568 | 3.34319 | 35001 ft | 464 kts | 177° |
| 2026-05-08 10:48 | 37.56293 | 3.36055 | 35006 ft | 464 kts | 177° |
| 2026-05-08 10:48 | 37.49974 | 3.37803 | 35006 ft | 464 kts | 177° |
| 2026-05-08 10:49 | 37.44721 | 3.39253 | 35009 ft | 464 kts | 177° |
| 2026-05-08 10:49 | 37.38405 | 3.40994 | 35008 ft | 465 kts | 177° |
| 2026-05-08 10:50 | 37.32085 | 3.42732 | 35014 ft | 465 kts | 177° |
| 2026-05-08 10:50 | 37.25767 | 3.44467 | 35020 ft | 465 kts | 177° |
| 2026-05-08 10:51 | 37.19440 | 3.46201 | 35018 ft | 465 kts | 177° |
| 2026-05-08 10:51 | 37.13126 | 3.47928 | 35017 ft | 465 kts | 178° |
| 2026-05-08 10:52 | 37.06801 | 3.49656 | 35020 ft | 465 kts | 178° |
| 2026-05-08 10:52 | 37.00512 | 3.51371 | 35018 ft | 465 kts | 178° |
| 2026-05-08 10:53 | 36.94188 | 3.53093 | 35015 ft | 465 kts | 178° |
| 2026-05-08 10:53 | 36.87863 | 3.54812 | 35015 ft | 465 kts | 178° |
| 2026-05-08 10:54 | 36.81555 | 3.56523 | 35054 ft | 465 kts | 178° |
| 2026-05-08 10:54 | 36.78399 | 3.57377 | 35372 ft | 461 kts | 178° |
| 2026-05-08 10:54 | 36.75267 | 3.58077 | 35790 ft | 453 kts | 181° |
| 2026-05-08 10:54 | 36.72154 | 3.58615 | 35994 ft | 451 kts | 182° |
| 2026-05-08 10:55 | 36.69035 | 3.59085 | 35981 ft | 455 kts | 183° |
| 2026-05-08 10:55 | 36.62716 | 3.60040 | 36010 ft | 456 kts | 182° |
| 2026-05-08 10:56 | 36.56420 | 3.61090 | 36008 ft | 456 kts | 182° |
| 2026-05-08 10:56 | 36.50158 | 3.62173 | 36011 ft | 457 kts | 182° |
| 2026-05-08 10:57 | 36.43857 | 3.63269 | 35979 ft | 456 kts | 182° |
| 2026-05-08 10:57 | 36.34397 | 3.64904 | 36009 ft | 459 kts | 182° |
| 2026-05-08 10:58 | 36.28098 | 3.65990 | 36014 ft | 459 kts | 182° |
| 2026-05-08 10:58 | 36.21770 | 3.67079 | 36012 ft | 459 kts | 182° |
| 2026-05-08 10:59 | 36.15449 | 3.68164 | 36021 ft | 460 kts | 182° |
| 2026-05-08 10:59 | 36.09097 | 3.69252 | 36011 ft | 461 kts | 182° |
| 2026-05-08 11:00 | 36.02741 | 3.70342 | 36022 ft | 461 kts | 182° |
| 2026-05-08 11:00 | 35.96382 | 3.71430 | 36021 ft | 461 kts | 182° |
| 2026-05-08 11:01 | 35.90025 | 3.72514 | 36013 ft | 461 kts | 182° |
| 2026-05-08 11:01 | 35.83656 | 3.73598 | 36011 ft | 461 kts | 182° |
| 2026-05-08 11:02 | 35.74131 | 3.75218 | 36016 ft | 461 kts | 182° |
| 2026-05-08 11:03 | 35.67802 | 3.76292 | 35994 ft | 461 kts | 182° |
| 2026-05-08 11:03 | 35.61379 | 3.77372 | 36018 ft | 463 kts | 182° |
| 2026-05-08 11:04 | 35.55030 | 3.78449 | 36011 ft | 464 kts | 182° |
| 2026-05-08 11:04 | 35.48641 | 3.79534 | 36007 ft | 463 kts | 182° |
| 2026-05-08 11:05 | 35.42241 | 3.80615 | 35995 ft | 464 kts | 181° |
| 2026-05-08 11:05 | 35.35811 | 3.81695 | 36016 ft | 467 kts | 181° |
| 2026-05-08 11:06 | 35.29354 | 3.82780 | 36015 ft | 468 kts | 181° |
| 2026-05-08 11:06 | 35.22942 | 3.83859 | 36008 ft | 468 kts | 181° |
| 2026-05-08 11:07 | 35.16487 | 3.84942 | 35992 ft | 469 kts | 181° |
| 2026-05-08 11:07 | 35.10000 | 3.86025 | 35996 ft | 470 kts | 181° |
| 2026-05-08 11:08 | 35.03500 | 3.87113 | 35991 ft | 471 kts | 181° |
| 2026-05-08 11:08 | 34.97006 | 3.88198 | 35990 ft | 471 kts | 181° |
| 2026-05-08 11:09 | 34.90517 | 3.89279 | 35988 ft | 472 kts | 181° |
| 2026-05-08 11:09 | 34.84042 | 3.90354 | 35994 ft | 473 kts | 181° |
| 2026-05-08 11:10 | 34.77503 | 3.91440 | 35993 ft | 473 kts | 181° |
| 2026-05-08 11:10 | 34.70980 | 3.92523 | 35993 ft | 473 kts | 181° |
| 2026-05-08 11:11 | 34.64461 | 3.93601 | 35991 ft | 473 kts | 181° |
| 2026-05-08 11:11 | 34.57920 | 3.94681 | 35996 ft | 474 kts | 181° |
| 2026-05-08 11:12 | 34.51385 | 3.95760 | 35996 ft | 474 kts | 181° |
| 2026-05-08 11:12 | 34.44892 | 3.96831 | 35996 ft | 473 kts | 181° |
| 2026-05-08 11:13 | 34.38365 | 3.97904 | 35986 ft | 474 kts | 181° |
| 2026-05-08 11:13 | 34.31802 | 3.98980 | 35985 ft | 476 kts | 181° |
| 2026-05-08 11:14 | 34.25239 | 4.00056 | 35985 ft | 475 kts | 180° |
| 2026-05-08 11:14 | 34.18676 | 4.01131 | 35985 ft | 475 kts | 181° |
| 2026-05-08 11:15 | 34.12117 | 4.02164 | 35967 ft | 473 kts | 183° |
| 2026-05-08 11:15 | 34.05655 | 4.01968 | 35974 ft | 461 kts | 193° |
| 2026-05-08 11:16 | 33.99296 | 4.01098 | 35971 ft | 459 kts | 195° |
| 2026-05-08 11:16 | 33.92998 | 4.00134 | 35966 ft | 459 kts | 195° |
| 2026-05-08 11:17 | 33.86663 | 3.99174 | 35963 ft | 460 kts | 194° |
| 2026-05-08 11:17 | 33.80290 | 3.98229 | 35968 ft | 461 kts | 194° |
| 2026-05-08 11:18 | 33.73920 | 3.97294 | 35969 ft | 461 kts | 194° |
| 2026-05-08 11:18 | 33.67546 | 3.96362 | 35965 ft | 461 kts | 194° |
| 2026-05-08 11:19 | 33.61180 | 3.95431 | 35942 ft | 461 kts | 194° |
| 2026-05-08 11:19 | 33.54796 | 3.94497 | 35963 ft | 462 kts | 194° |
| 2026-05-08 11:20 | 33.48451 | 3.93571 | 35963 ft | 462 kts | 194° |
| 2026-05-08 11:20 | 33.42063 | 3.92640 | 35964 ft | 462 kts | 194° |
| 2026-05-08 11:21 | 33.35683 | 3.91712 | 35963 ft | 462 kts | 194° |
| 2026-05-08 11:21 | 33.29290 | 3.90783 | 35964 ft | 462 kts | 194° |
| 2026-05-08 11:22 | 33.22901 | 3.89856 | 35965 ft | 462 kts | 194° |
| 2026-05-08 11:22 | 33.16516 | 3.88932 | 35966 ft | 462 kts | 194° |
| 2026-05-08 11:23 | 33.10118 | 3.88005 | 35965 ft | 462 kts | 194° |
| 2026-05-08 11:23 | 33.03726 | 3.87080 | 35964 ft | 464 kts | 194° |
| 2026-05-08 11:24 | 32.97354 | 3.86153 | 35963 ft | 464 kts | 194° |
| 2026-05-08 11:24 | 32.90943 | 3.85225 | 35963 ft | 464 kts | 194° |
| 2026-05-08 11:25 | 32.84535 | 3.84298 | 35961 ft | 464 kts | 194° |
| 2026-05-08 11:25 | 32.78128 | 3.83371 | 35955 ft | 464 kts | 194° |
| 2026-05-08 11:26 | 32.71712 | 3.82444 | 35962 ft | 464 kts | 194° |
| 2026-05-08 11:26 | 32.65294 | 3.81519 | 35991 ft | 464 kts | 194° |
| 2026-05-08 11:27 | 32.58876 | 3.80595 | 35997 ft | 464 kts | 194° |
| 2026-05-08 11:27 | 32.52495 | 3.79679 | 36007 ft | 463 kts | 194° |
| 2026-05-08 11:28 | 32.46102 | 3.78761 | 36016 ft | 463 kts | 194° |
| 2026-05-08 11:28 | 32.39672 | 3.78098 | 36240 ft | 467 kts | 186° |
| 2026-05-08 11:28 | 32.36413 | 3.78378 | 36574 ft | 471 kts | 181° |
| 2026-05-08 11:29 | 32.33156 | 3.78881 | 36794 ft | 471 kts | 179° |
| 2026-05-08 11:29 | 32.29907 | 3.79455 | 36947 ft | 474 kts | 179° |
| 2026-05-08 11:29 | 32.26629 | 3.80067 | 36954 ft | 478 kts | 178° |
| 2026-05-08 11:30 | 32.20051 | 3.81320 | 36953 ft | 480 kts | 178° |
| 2026-05-08 11:30 | 32.13457 | 3.82560 | 36956 ft | 480 kts | 178° |
| 2026-05-08 11:31 | 32.06890 | 3.83774 | 36953 ft | 480 kts | 178° |
| 2026-05-08 11:31 | 32.00284 | 3.84986 | 36935 ft | 480 kts | 178° |
| 2026-05-08 11:32 | 31.93672 | 3.86198 | 36959 ft | 481 kts | 178° |
| 2026-05-08 11:32 | 31.87051 | 3.87411 | 36953 ft | 481 kts | 178° |
| 2026-05-08 11:33 | 31.80425 | 3.88624 | 36940 ft | 481 kts | 178° |
| 2026-05-08 11:33 | 31.73811 | 3.89832 | 36914 ft | 481 kts | 178° |
| 2026-05-08 11:34 | 31.67179 | 3.91040 | 36946 ft | 482 kts | 178° |
| 2026-05-08 11:34 | 31.60539 | 3.92249 | 36945 ft | 483 kts | 178° |
| 2026-05-08 11:35 | 31.55023 | 3.93253 | 36946 ft | 483 kts | 178° |
| 2026-05-08 11:35 | 31.48382 | 3.94460 | 36938 ft | 483 kts | 178° |
| 2026-05-08 11:36 | 31.40657 | 3.95861 | 36936 ft | 484 kts | 178° |
| 2026-05-08 11:36 | 31.35090 | 3.96868 | 36939 ft | 484 kts | 178° |
| 2026-05-08 11:37 | 31.28430 | 3.98074 | 36937 ft | 484 kts | 178° |
| 2026-05-08 11:37 | 31.21779 | 3.99275 | 36936 ft | 484 kts | 178° |
| 2026-05-08 11:38 | 31.15120 | 4.00476 | 36930 ft | 484 kts | 178° |
| 2026-05-08 11:38 | 31.08493 | 4.01670 | 36928 ft | 485 kts | 178° |
| 2026-05-08 11:39 | 31.01821 | 4.02869 | 36929 ft | 485 kts | 178° |
| 2026-05-08 11:39 | 30.95149 | 4.04068 | 36924 ft | 485 kts | 178° |
| 2026-05-08 11:40 | 30.88473 | 4.05266 | 36893 ft | 485 kts | 178° |
| 2026-05-08 11:40 | 30.81793 | 4.06460 | 36916 ft | 487 kts | 178° |
| 2026-05-08 11:41 | 30.75091 | 4.07659 | 36915 ft | 487 kts | 178° |
| 2026-05-08 11:41 | 30.68389 | 4.08857 | 36914 ft | 487 kts | 178° |
| 2026-05-08 11:42 | 30.61685 | 4.10053 | 36911 ft | 487 kts | 178° |
| 2026-05-08 11:42 | 30.55035 | 4.11238 | 36908 ft | 487 kts | 178° |
| 2026-05-08 11:43 | 30.48339 | 4.12429 | 36904 ft | 487 kts | 178° |
| 2026-05-08 11:43 | 30.41637 | 4.13619 | 36902 ft | 486 kts | 178° |
| 2026-05-08 11:44 | 30.34936 | 4.14806 | 36900 ft | 486 kts | 178° |
| 2026-05-08 11:44 | 30.28273 | 4.15986 | 36897 ft | 487 kts | 178° |
| 2026-05-08 11:45 | 30.21569 | 4.17171 | 36893 ft | 487 kts | 178° |
| 2026-05-08 11:45 | 30.14870 | 4.18355 | 36893 ft | 487 kts | 178° |
| 2026-05-08 11:46 | 30.08158 | 4.19539 | 36889 ft | 487 kts | 178° |
| 2026-05-08 11:46 | 30.01433 | 4.20722 | 36890 ft | 490 kts | 178° |
| 2026-05-08 11:47 | 29.94680 | 4.21908 | 36888 ft | 491 kts | 178° |
| 2026-05-08 11:47 | 29.87961 | 4.23090 | 36889 ft | 491 kts | 178° |
| 2026-05-08 11:48 | 29.81207 | 4.24276 | 36893 ft | 491 kts | 178° |
| 2026-05-08 11:48 | 29.74440 | 4.25461 | 36870 ft | 491 kts | 178° |
| 2026-05-08 11:49 | 29.67675 | 4.26647 | 36883 ft | 492 kts | 178° |
| 2026-05-08 11:49 | 29.60948 | 4.27848 | 36884 ft | 493 kts | 178° |
| 2026-05-08 11:50 | 29.54173 | 4.29061 | 36887 ft | 492 kts | 178° |
| 2026-05-08 11:50 | 29.47401 | 4.30268 | 36894 ft | 492 kts | 178° |
| 2026-05-08 11:51 | 29.40629 | 4.31471 | 36891 ft | 493 kts | 178° |
| 2026-05-08 11:51 | 29.33849 | 4.32673 | 36896 ft | 493 kts | 178° |
| 2026-05-08 11:52 | 29.27104 | 4.33869 | 36896 ft | 493 kts | 178° |
| 2026-05-08 11:52 | 29.20324 | 4.35068 | 36894 ft | 493 kts | 178° |
| 2026-05-08 11:53 | 29.13542 | 4.36266 | 36891 ft | 493 kts | 178° |
| 2026-05-08 11:53 | 29.06761 | 4.37461 | 36890 ft | 493 kts | 178° |
| 2026-05-08 11:54 | 28.99985 | 4.38654 | 36896 ft | 493 kts | 178° |
| 2026-05-08 11:54 | 28.93203 | 4.39848 | 36896 ft | 493 kts | 178° |
| 2026-05-08 11:55 | 28.86430 | 4.41039 | 36882 ft | 493 kts | 177° |
| 2026-05-08 11:55 | 28.79649 | 4.42229 | 36903 ft | 493 kts | 177° |
| 2026-05-08 11:56 | 28.72873 | 4.43417 | 36894 ft | 493 kts | 177° |
| 2026-05-08 11:56 | 28.66086 | 4.44604 | 36904 ft | 493 kts | 178° |
| 2026-05-08 11:57 | 28.59305 | 4.45789 | 36909 ft | 493 kts | 178° |
| 2026-05-08 11:57 | 28.52535 | 4.46971 | 36908 ft | 492 kts | 177° |
| 2026-05-08 11:58 | 28.45760 | 4.48161 | 36911 ft | 493 kts | 177° |
| 2026-05-08 11:58 | 28.38984 | 4.49379 | 36912 ft | 493 kts | 177° |
| 2026-05-08 11:59 | 28.28831 | 4.51206 | 36886 ft | 492 kts | 177° |
| 2026-05-08 11:59 | 28.22102 | 4.52411 | 36917 ft | 492 kts | 177° |
| 2026-05-08 12:00 | 28.15327 | 4.53621 | 36919 ft | 492 kts | 177° |
| 2026-05-08 12:00 | 28.08560 | 4.54827 | 36919 ft | 492 kts | 177° |
| 2026-05-08 12:01 | 28.01794 | 4.56032 | 36916 ft | 492 kts | 177° |
| 2026-05-08 12:01 | 27.95026 | 4.57235 | 36916 ft | 493 kts | 177° |
| 2026-05-08 12:02 | 27.88255 | 4.58438 | 36921 ft | 493 kts | 177° |
| 2026-05-08 12:02 | 27.81465 | 4.59641 | 36919 ft | 493 kts | 177° |
| 2026-05-08 12:03 | 27.74681 | 4.60842 | 36918 ft | 494 kts | 177° |
| 2026-05-08 12:03 | 27.67886 | 4.62045 | 36916 ft | 494 kts | 177° |
| 2026-05-08 12:04 | 27.61099 | 4.63245 | 36926 ft | 494 kts | 177° |
| 2026-05-08 12:04 | 27.54354 | 4.64435 | 36918 ft | 493 kts | 177° |
| 2026-05-08 12:05 | 27.47565 | 4.65632 | 36919 ft | 493 kts | 177° |
| 2026-05-08 12:05 | 27.40782 | 4.66826 | 36922 ft | 493 kts | 177° |
| 2026-05-08 12:06 | 27.33998 | 4.68018 | 36919 ft | 493 kts | 177° |
| 2026-05-08 12:06 | 27.27214 | 4.69209 | 36919 ft | 493 kts | 177° |
| 2026-05-08 12:07 | 27.20432 | 4.70399 | 36919 ft | 493 kts | 177° |
| 2026-05-08 12:07 | 27.13645 | 4.71588 | 36920 ft | 493 kts | 177° |
| 2026-05-08 12:08 | 27.06865 | 4.72774 | 36917 ft | 493 kts | 177° |
| 2026-05-08 12:08 | 27.00079 | 4.73960 | 36922 ft | 493 kts | 177° |
| 2026-05-08 12:09 | 26.93294 | 4.75144 | 36922 ft | 493 kts | 177° |
| 2026-05-08 12:09 | 26.86512 | 4.76327 | 36923 ft | 493 kts | 177° |
| 2026-05-08 12:10 | 26.79768 | 4.77501 | 36919 ft | 493 kts | 177° |
| 2026-05-08 12:10 | 26.72987 | 4.78681 | 36919 ft | 493 kts | 177° |
| 2026-05-08 12:11 | 26.66200 | 4.79859 | 36917 ft | 493 kts | 177° |
| 2026-05-08 12:11 | 26.59404 | 4.81039 | 36920 ft | 493 kts | 177° |
| 2026-05-08 12:12 | 26.52666 | 4.82206 | 36928 ft | 493 kts | 177° |
| 2026-05-08 12:12 | 26.45891 | 4.83378 | 36915 ft | 493 kts | 178° |
| 2026-05-08 12:13 | 26.39073 | 4.84557 | 36929 ft | 492 kts | 178° |
| 2026-05-08 12:13 | 26.32354 | 4.85716 | 36927 ft | 492 kts | 178° |
| 2026-05-08 12:14 | 26.25587 | 4.86883 | 36929 ft | 492 kts | 178° |
| 2026-05-08 12:14 | 26.18823 | 4.88048 | 36929 ft | 492 kts | 178° |
| 2026-05-08 12:15 | 26.12070 | 4.89206 | 36934 ft | 490 kts | 179° |
| 2026-05-08 12:15 | 26.05326 | 4.90365 | 36932 ft | 490 kts | 179° |
| 2026-05-08 12:16 | 25.98581 | 4.91524 | 36938 ft | 490 kts | 179° |
| 2026-05-08 12:16 | 25.91839 | 4.92681 | 36941 ft | 490 kts | 179° |
| 2026-05-08 12:17 | 25.85130 | 4.93831 | 36930 ft | 490 kts | 179° |
| 2026-05-08 12:17 | 25.78399 | 4.94984 | 36947 ft | 488 kts | 179° |
| 2026-05-08 12:18 | 25.71681 | 4.96132 | 36947 ft | 489 kts | 180° |
| 2026-05-08 12:18 | 25.64950 | 4.97278 | 36946 ft | 489 kts | 180° |
| 2026-05-08 12:19 | 25.58221 | 4.98424 | 36944 ft | 489 kts | 179° |
| 2026-05-08 12:19 | 25.51498 | 4.99570 | 36939 ft | 490 kts | 180° |
| 2026-05-08 12:20 | 25.44760 | 5.00716 | 36942 ft | 490 kts | 180° |
| 2026-05-08 12:20 | 25.38030 | 5.01859 | 36941 ft | 489 kts | 180° |
| 2026-05-08 12:21 | 25.31335 | 5.02995 | 36937 ft | 490 kts | 180° |
| 2026-05-08 12:21 | 25.24595 | 5.04137 | 36938 ft | 489 kts | 180° |
| 2026-05-08 12:22 | 25.18958 | 5.05092 | 36941 ft | 489 kts | 180° |
| 2026-05-08 12:22 | 25.12270 | 5.06225 | 36937 ft | 489 kts | 180° |
| 2026-05-08 12:23 | 25.05544 | 5.07361 | 36944 ft | 489 kts | 180° |
| 2026-05-08 12:23 | 24.98815 | 5.08496 | 36949 ft | 489 kts | 180° |
| 2026-05-08 12:24 | 24.92091 | 5.09630 | 36930 ft | 489 kts | 180° |
| 2026-05-08 12:24 | 24.85376 | 5.10764 | 36951 ft | 487 kts | 180° |
| 2026-05-08 12:25 | 24.78677 | 5.11891 | 36950 ft | 486 kts | 180° |
| 2026-05-08 12:25 | 24.71990 | 5.13013 | 36950 ft | 486 kts | 180° |
| 2026-05-08 12:26 | 24.65301 | 5.14135 | 36951 ft | 486 kts | 180° |
| 2026-05-08 12:26 | 24.58605 | 5.15258 | 36952 ft | 486 kts | 180° |
| 2026-05-08 12:27 | 24.51912 | 5.16379 | 36953 ft | 486 kts | 180° |
| 2026-05-08 12:27 | 24.45261 | 5.17487 | 36956 ft | 487 kts | 180° |
| 2026-05-08 12:28 | 24.38565 | 5.18608 | 36964 ft | 487 kts | 180° |
| 2026-05-08 12:28 | 24.31871 | 5.19728 | 36963 ft | 486 kts | 180° |
| 2026-05-08 12:29 | 24.25186 | 5.20844 | 36958 ft | 487 kts | 180° |
| 2026-05-08 12:29 | 24.18477 | 5.21961 | 36960 ft | 487 kts | 180° |
| 2026-05-08 12:30 | 24.11825 | 5.23068 | 36954 ft | 487 kts | 180° |
| 2026-05-08 12:30 | 24.05079 | 5.24190 | 36955 ft | 487 kts | 180° |
| 2026-05-08 12:31 | 23.98411 | 5.25297 | 36943 ft | 487 kts | 180° |
| 2026-05-08 12:31 | 23.91710 | 5.26408 | 36944 ft | 488 kts | 180° |
| 2026-05-08 12:32 | 23.84994 | 5.27522 | 36940 ft | 488 kts | 180° |
| 2026-05-08 12:32 | 23.78277 | 5.28635 | 36936 ft | 488 kts | 180° |
| 2026-05-08 12:33 | 23.71600 | 5.29739 | 36934 ft | 488 kts | 180° |
| 2026-05-08 12:33 | 23.64888 | 5.30848 | 36923 ft | 488 kts | 180° |
| 2026-05-08 12:34 | 23.58165 | 5.31955 | 36941 ft | 488 kts | 180° |
| 2026-05-08 12:34 | 23.51444 | 5.33064 | 36950 ft | 489 kts | 180° |
| 2026-05-08 12:35 | 23.44709 | 5.34173 | 36977 ft | 490 kts | 180° |
| 2026-05-08 12:35 | 23.37956 | 5.35283 | 36986 ft | 491 kts | 180° |
| 2026-05-08 12:36 | 23.31187 | 5.36396 | 36980 ft | 492 kts | 179° |
| 2026-05-08 12:36 | 23.24424 | 5.37505 | 36985 ft | 495 kts | 179° |
| 2026-05-08 12:37 | 23.17597 | 5.38627 | 36989 ft | 496 kts | 179° |
| 2026-05-08 12:37 | 23.10782 | 5.39745 | 37027 ft | 496 kts | 179° |
| 2026-05-08 12:38 | 23.03955 | 5.40863 | 37079 ft | 496 kts | 179° |
| 2026-05-08 12:38 | 22.97130 | 5.41978 | 37126 ft | 496 kts | 179° |
| 2026-05-08 12:39 | 22.90308 | 5.43092 | 37181 ft | 496 kts | 179° |
| 2026-05-08 12:39 | 22.83483 | 5.44219 | 37181 ft | 498 kts | 178° |
| 2026-05-08 12:40 | 22.76758 | 5.46388 | 37183 ft | 509 kts | 167° |
| 2026-05-08 12:40 | 22.70134 | 5.49218 | 37162 ft | 512 kts | 165° |
| 2026-05-08 12:41 | 22.63577 | 5.52120 | 37103 ft | 513 kts | 165° |
| 2026-05-08 12:41 | 22.56956 | 5.55035 | 37035 ft | 514 kts | 165° |
| 2026-05-08 12:42 | 22.50318 | 5.57935 | 36967 ft | 514 kts | 165° |
| 2026-05-08 12:42 | 22.43684 | 5.60822 | 36926 ft | 514 kts | 165° |
| 2026-05-08 12:43 | 22.37038 | 5.63710 | 36933 ft | 514 kts | 165° |
| 2026-05-08 12:43 | 22.30386 | 5.66596 | 36924 ft | 517 kts | 165° |
| 2026-05-08 12:44 | 22.23728 | 5.69482 | 36913 ft | 519 kts | 165° |
| 2026-05-08 12:44 | 22.17028 | 5.72387 | 36904 ft | 520 kts | 165° |
| 2026-05-08 12:45 | 22.10295 | 5.75301 | 36923 ft | 522 kts | 165° |
| 2026-05-08 12:45 | 22.03543 | 5.78222 | 36893 ft | 522 kts | 165° |
| 2026-05-08 12:46 | 21.96794 | 5.81137 | 36900 ft | 523 kts | 165° |
| 2026-05-08 12:46 | 21.90075 | 5.84037 | 36890 ft | 523 kts | 165° |
| 2026-05-08 12:47 | 21.83316 | 5.86952 | 36892 ft | 523 kts | 165° |
| 2026-05-08 12:47 | 21.76552 | 5.89866 | 36878 ft | 523 kts | 165° |
| 2026-05-08 12:48 | 21.69782 | 5.92779 | 36873 ft | 523 kts | 165° |
| 2026-05-08 12:48 | 21.63046 | 5.95673 | 36868 ft | 524 kts | 164° |
| 2026-05-08 12:49 | 21.56267 | 5.98584 | 36866 ft | 524 kts | 164° |
| 2026-05-08 12:49 | 21.49482 | 6.01494 | 36868 ft | 525 kts | 164° |
| 2026-05-08 12:50 | 21.42700 | 6.04401 | 36849 ft | 525 kts | 164° |
| 2026-05-08 12:50 | 21.35918 | 6.07304 | 36857 ft | 525 kts | 164° |
| 2026-05-08 12:51 | 21.25778 | 6.11639 | 36840 ft | 525 kts | 164° |
| 2026-05-08 12:52 | 21.18988 | 6.14539 | 36832 ft | 526 kts | 164° |
| 2026-05-08 12:52 | 21.08794 | 6.18887 | 36833 ft | 525 kts | 164° |
| 2026-05-08 12:53 | 21.01994 | 6.21784 | 36818 ft | 525 kts | 164° |
| 2026-05-08 12:53 | 20.95211 | 6.24670 | 36834 ft | 524 kts | 164° |
| 2026-05-08 12:54 | 20.88433 | 6.27552 | 36833 ft | 523 kts | 164° |
| 2026-05-08 12:54 | 20.81651 | 6.30433 | 36828 ft | 523 kts | 164° |
| 2026-05-08 12:55 | 20.74929 | 6.33285 | 36828 ft | 524 kts | 164° |
| 2026-05-08 12:55 | 20.68148 | 6.36158 | 36815 ft | 524 kts | 163° |
| 2026-05-08 12:56 | 20.61385 | 6.39023 | 36823 ft | 522 kts | 163° |
| 2026-05-08 12:56 | 20.54625 | 6.41884 | 36824 ft | 522 kts | 163° |
| 2026-05-08 12:57 | 20.47867 | 6.44740 | 36825 ft | 522 kts | 163° |
| 2026-05-08 12:57 | 20.41105 | 6.47595 | 36823 ft | 523 kts | 164° |
| 2026-05-08 12:58 | 20.34370 | 6.50435 | 36806 ft | 523 kts | 163° |
| 2026-05-08 12:58 | 20.27607 | 6.53287 | 36816 ft | 522 kts | 163° |
| 2026-05-08 12:59 | 20.20855 | 6.56131 | 36815 ft | 521 kts | 163° |
| 2026-05-08 12:59 | 20.13962 | 6.58190 | 36876 ft | 508 kts | 179° |
| 2026-05-08 13:00 | 20.10473 | 6.58345 | 37133 ft | 497 kts | 189° |
| 2026-05-08 13:00 | 20.07078 | 6.57894 | 37399 ft | 486 kts | 199° |
| 2026-05-08 13:00 | 20.03862 | 6.56912 | 37643 ft | 479 kts | 205° |
| 2026-05-08 13:00 | 20.00726 | 6.55728 | 37794 ft | 479 kts | 206° |
| 2026-05-08 13:01 | 19.94481 | 6.53179 | 37812 ft | 481 kts | 207° |
| 2026-05-08 13:01 | 19.88246 | 6.50613 | 37812 ft | 480 kts | 207° |
| 2026-05-08 13:02 | 19.82038 | 6.48101 | 37813 ft | 480 kts | 207° |
| 2026-05-08 13:02 | 19.75785 | 6.45594 | 37807 ft | 480 kts | 206° |
| 2026-05-08 13:03 | 19.69530 | 6.43093 | 37805 ft | 480 kts | 206° |
| 2026-05-08 13:03 | 19.63280 | 6.40593 | 37805 ft | 480 kts | 206° |
| 2026-05-08 13:04 | 19.57020 | 6.38092 | 37806 ft | 480 kts | 206° |
| 2026-05-08 13:04 | 19.50760 | 6.35592 | 37803 ft | 480 kts | 206° |
| 2026-05-08 13:05 | 19.44498 | 6.33093 | 37802 ft | 480 kts | 206° |
| 2026-05-08 13:05 | 19.38277 | 6.30613 | 37799 ft | 480 kts | 206° |
| 2026-05-08 13:06 | 19.32025 | 6.28122 | 37806 ft | 481 kts | 206° |
| 2026-05-08 13:06 | 19.25760 | 6.25629 | 37792 ft | 481 kts | 206° |
| 2026-05-08 13:07 | 19.19479 | 6.23131 | 37799 ft | 481 kts | 206° |
| 2026-05-08 13:07 | 19.13209 | 6.20640 | 37793 ft | 481 kts | 206° |
| 2026-05-08 13:08 | 19.06944 | 6.18152 | 37797 ft | 481 kts | 206° |
| 2026-05-08 13:08 | 19.00706 | 6.15677 | 37791 ft | 481 kts | 206° |
| 2026-05-08 13:09 | 18.94424 | 6.13186 | 37796 ft | 483 kts | 206° |
| 2026-05-08 13:09 | 18.88133 | 6.10695 | 37788 ft | 483 kts | 206° |
| 2026-05-08 13:10 | 18.82904 | 6.08625 | 37797 ft | 483 kts | 205° |
| 2026-05-08 13:10 | 18.76600 | 6.06133 | 37792 ft | 482 kts | 205° |
| 2026-05-08 13:11 | 18.69294 | 6.03246 | 37789 ft | 482 kts | 205° |
| 2026-05-08 13:11 | 18.64028 | 6.01166 | 37793 ft | 483 kts | 205° |
| 2026-05-08 13:12 | 18.57733 | 5.98682 | 37790 ft | 483 kts | 205° |
| 2026-05-08 13:12 | 18.51486 | 5.96219 | 37788 ft | 483 kts | 205° |
| 2026-05-08 13:13 | 18.45193 | 5.93740 | 37782 ft | 483 kts | 205° |
| 2026-05-08 13:13 | 18.38897 | 5.91262 | 37785 ft | 483 kts | 205° |
| 2026-05-08 13:14 | 18.32603 | 5.88786 | 37778 ft | 483 kts | 205° |
| 2026-05-08 13:14 | 18.26310 | 5.86313 | 37781 ft | 483 kts | 205° |
| 2026-05-08 13:15 | 18.20006 | 5.83837 | 37788 ft | 483 kts | 205° |
| 2026-05-08 13:15 | 18.13705 | 5.81365 | 37785 ft | 483 kts | 205° |
| 2026-05-08 13:16 | 18.07445 | 5.78910 | 37782 ft | 483 kts | 205° |
| 2026-05-08 13:16 | 18.01151 | 5.76444 | 37785 ft | 483 kts | 205° |
| 2026-05-08 13:17 | 17.94847 | 5.73976 | 37784 ft | 483 kts | 205° |
| 2026-05-08 13:17 | 17.88554 | 5.71514 | 37780 ft | 483 kts | 205° |
| 2026-05-08 13:18 | 17.82328 | 5.68912 | 37785 ft | 478 kts | 211° |
| 2026-05-08 13:18 | 17.76551 | 5.65487 | 37780 ft | 475 kts | 215° |
| 2026-05-08 13:19 | 17.70876 | 5.61908 | 37779 ft | 475 kts | 215° |
| 2026-05-08 13:19 | 17.65250 | 5.58332 | 37772 ft | 475 kts | 215° |
| 2026-05-08 13:20 | 17.59579 | 5.54745 | 37779 ft | 476 kts | 215° |
| 2026-05-08 13:20 | 17.53911 | 5.51175 | 37772 ft | 476 kts | 215° |
| 2026-05-08 13:21 | 17.48227 | 5.47601 | 37772 ft | 476 kts | 215° |
| 2026-05-08 13:21 | 17.42548 | 5.44032 | 37779 ft | 476 kts | 215° |
| 2026-05-08 13:22 | 17.36869 | 5.40465 | 37776 ft | 476 kts | 215° |
| 2026-05-08 13:22 | 17.31192 | 5.36901 | 37766 ft | 476 kts | 214° |
| 2026-05-08 13:23 | 17.25539 | 5.33354 | 37774 ft | 477 kts | 214° |
| 2026-05-08 13:23 | 17.19848 | 5.29788 | 37765 ft | 476 kts | 214° |
| 2026-05-08 13:24 | 17.14163 | 5.26228 | 37773 ft | 476 kts | 214° |
| 2026-05-08 13:24 | 17.08474 | 5.22667 | 37773 ft | 476 kts | 214° |
| 2026-05-08 13:25 | 17.02776 | 5.19104 | 37771 ft | 476 kts | 214° |
| 2026-05-08 13:25 | 16.97125 | 5.15571 | 37765 ft | 476 kts | 214° |
| 2026-05-08 13:26 | 16.91425 | 5.12011 | 37774 ft | 478 kts | 214° |
| 2026-05-08 13:26 | 16.85716 | 5.08448 | 37774 ft | 478 kts | 214° |
| 2026-05-08 13:27 | 16.80002 | 5.04885 | 37771 ft | 478 kts | 214° |
| 2026-05-08 13:27 | 16.74292 | 5.01327 | 37772 ft | 478 kts | 214° |
| 2026-05-08 13:28 | 16.68579 | 4.97769 | 37772 ft | 478 kts | 214° |
| 2026-05-08 13:28 | 16.62870 | 4.94216 | 37767 ft | 478 kts | 214° |
| 2026-05-08 13:29 | 16.57190 | 4.90683 | 37772 ft | 478 kts | 214° |
| 2026-05-08 13:29 | 16.51471 | 4.87130 | 37771 ft | 478 kts | 214° |
| 2026-05-08 13:30 | 16.45751 | 4.83577 | 37771 ft | 478 kts | 214° |
| 2026-05-08 13:30 | 16.40038 | 4.80032 | 37774 ft | 478 kts | 214° |
| 2026-05-08 13:31 | 16.34318 | 4.76485 | 37771 ft | 478 kts | 214° |
| 2026-05-08 13:31 | 16.28600 | 4.72940 | 37763 ft | 478 kts | 213° |
| 2026-05-08 13:32 | 16.22865 | 4.69388 | 37769 ft | 480 kts | 213° |
| 2026-05-08 13:32 | 16.17112 | 4.65828 | 37766 ft | 481 kts | 213° |
| 2026-05-08 13:33 | 16.11391 | 4.62290 | 37773 ft | 481 kts | 213° |
| 2026-05-08 13:33 | 16.05614 | 4.58767 | 37768 ft | 482 kts | 210° |
| 2026-05-08 13:34 | 15.99527 | 4.55797 | 37771 ft | 483 kts | 207° |
| 2026-05-08 13:34 | 15.93384 | 4.52965 | 37769 ft | 482 kts | 206° |
| 2026-05-08 13:35 | 15.87231 | 4.50155 | 37773 ft | 484 kts | 206° |
| 2026-05-08 13:35 | 15.81067 | 4.47333 | 37770 ft | 484 kts | 206° |
| 2026-05-08 13:36 | 15.74894 | 4.44501 | 37769 ft | 484 kts | 206° |
| 2026-05-08 13:36 | 15.68735 | 4.41675 | 37769 ft | 484 kts | 206° |
| 2026-05-08 13:37 | 15.62577 | 4.38851 | 37772 ft | 484 kts | 206° |
| 2026-05-08 13:37 | 15.56413 | 4.36026 | 37770 ft | 485 kts | 206° |
| 2026-05-08 13:38 | 15.50231 | 4.33195 | 37771 ft | 486 kts | 206° |
| 2026-05-08 13:38 | 15.44035 | 4.30360 | 37770 ft | 486 kts | 206° |
| 2026-05-08 13:39 | 15.37876 | 4.27544 | 37769 ft | 486 kts | 206° |
| 2026-05-08 13:39 | 15.31689 | 4.24717 | 37768 ft | 486 kts | 206° |
| 2026-05-08 13:40 | 15.25492 | 4.21887 | 37769 ft | 486 kts | 206° |
| 2026-05-08 13:40 | 15.19294 | 4.19057 | 37769 ft | 488 kts | 206° |
| 2026-05-08 13:41 | 15.13069 | 4.16218 | 37767 ft | 488 kts | 205° |
| 2026-05-08 13:41 | 15.06852 | 4.13385 | 37767 ft | 488 kts | 205° |
| 2026-05-08 13:42 | 15.00645 | 4.10558 | 37768 ft | 488 kts | 205° |
| 2026-05-08 13:42 | 14.94471 | 4.07748 | 37769 ft | 488 kts | 205° |
| 2026-05-08 13:43 | 14.88260 | 4.04922 | 37771 ft | 488 kts | 205° |
| 2026-05-08 13:43 | 14.82044 | 4.02095 | 37778 ft | 488 kts | 205° |
| 2026-05-08 13:44 | 14.75816 | 3.99266 | 37775 ft | 489 kts | 205° |
| 2026-05-08 13:44 | 14.69589 | 3.96439 | 37770 ft | 489 kts | 205° |
| 2026-05-08 13:45 | 14.63367 | 3.93615 | 37773 ft | 489 kts | 205° |
| 2026-05-08 13:45 | 14.57141 | 3.90792 | 37777 ft | 488 kts | 205° |
| 2026-05-08 13:46 | 14.50908 | 3.87967 | 37783 ft | 489 kts | 205° |
| 2026-05-08 13:46 | 14.44686 | 3.85149 | 37780 ft | 489 kts | 205° |
| 2026-05-08 13:47 | 14.38494 | 3.82346 | 37778 ft | 489 kts | 205° |
| 2026-05-08 13:47 | 14.32267 | 3.79529 | 37785 ft | 488 kts | 205° |
| 2026-05-08 13:48 | 14.26060 | 3.76723 | 37786 ft | 487 kts | 205° |
| 2026-05-08 13:48 | 14.19853 | 3.73918 | 37784 ft | 486 kts | 205° |
| 2026-05-08 13:49 | 14.13636 | 3.71110 | 37791 ft | 487 kts | 205° |
| 2026-05-08 13:49 | 14.07465 | 3.68325 | 37789 ft | 487 kts | 205° |
| 2026-05-08 13:50 | 14.01248 | 3.65521 | 37792 ft | 487 kts | 205° |
| 2026-05-08 13:50 | 13.95039 | 3.62722 | 37794 ft | 487 kts | 205° |
| 2026-05-08 13:51 | 13.88834 | 3.59927 | 37799 ft | 487 kts | 205° |
| 2026-05-08 13:51 | 13.82627 | 3.57132 | 37799 ft | 487 kts | 205° |
| 2026-05-08 13:52 | 13.76404 | 3.54332 | 37794 ft | 488 kts | 205° |
| 2026-05-08 13:52 | 13.70177 | 3.51531 | 37799 ft | 488 kts | 205° |
| 2026-05-08 13:53 | 13.63945 | 3.48730 | 37801 ft | 488 kts | 205° |
| 2026-05-08 13:53 | 13.57715 | 3.45932 | 37802 ft | 488 kts | 205° |
| 2026-05-08 13:54 | 13.51522 | 3.43135 | 37804 ft | 488 kts | 206° |
| 2026-05-08 13:54 | 13.45339 | 3.40250 | 37803 ft | 488 kts | 206° |
| 2026-05-08 13:55 | 13.39133 | 3.37342 | 37800 ft | 491 kts | 206° |
| 2026-05-08 13:56 | 13.29800 | 3.32997 | 37808 ft | 491 kts | 205° |
| 2026-05-08 13:56 | 13.23571 | 3.30107 | 37808 ft | 491 kts | 205° |
| 2026-05-08 13:57 | 13.17337 | 3.27215 | 37802 ft | 491 kts | 205° |
| 2026-05-08 13:57 | 13.12159 | 3.24814 | 37800 ft | 491 kts | 205° |
| 2026-05-08 13:58 | 13.05919 | 3.21924 | 37797 ft | 493 kts | 205° |
| 2026-05-08 13:58 | 12.99656 | 3.19021 | 37802 ft | 495 kts | 205° |
| 2026-05-08 13:59 | 12.93375 | 3.16114 | 37802 ft | 495 kts | 205° |
| 2026-05-08 13:59 | 12.87094 | 3.13207 | 37819 ft | 495 kts | 205° |
| 2026-05-08 14:00 | 12.80821 | 3.10307 | 37801 ft | 495 kts | 205° |
| 2026-05-08 14:00 | 12.74584 | 3.07425 | 37811 ft | 495 kts | 205° |
| 2026-05-08 14:01 | 12.68283 | 3.04514 | 37800 ft | 497 kts | 205° |
| 2026-05-08 14:01 | 12.61996 | 3.01612 | 37812 ft | 495 kts | 205° |
| 2026-05-08 14:02 | 12.55718 | 2.98715 | 37818 ft | 494 kts | 205° |
| 2026-05-08 14:02 | 12.49436 | 2.95818 | 37816 ft | 494 kts | 205° |
| 2026-05-08 14:03 | 12.43166 | 2.92928 | 37795 ft | 494 kts | 205° |
| 2026-05-08 14:03 | 12.36896 | 2.90039 | 37825 ft | 495 kts | 205° |
| 2026-05-08 14:04 | 12.30584 | 2.87132 | 37815 ft | 497 kts | 205° |
| 2026-05-08 14:04 | 12.24316 | 2.84247 | 37815 ft | 497 kts | 205° |
| 2026-05-08 14:05 | 12.18002 | 2.81343 | 37800 ft | 497 kts | 205° |
| 2026-05-08 14:05 | 12.11683 | 2.78438 | 37818 ft | 498 kts | 205° |
| 2026-05-08 14:06 | 12.05367 | 2.75537 | 37820 ft | 498 kts | 205° |
| 2026-05-08 14:06 | 11.99055 | 2.72638 | 37813 ft | 497 kts | 205° |
| 2026-05-08 14:07 | 11.92752 | 2.69745 | 37824 ft | 496 kts | 205° |
| 2026-05-08 14:07 | 11.86498 | 2.66876 | 37818 ft | 495 kts | 205° |
| 2026-05-08 14:08 | 11.80191 | 2.63984 | 37819 ft | 497 kts | 205° |
| 2026-05-08 14:08 | 11.73874 | 2.61089 | 37818 ft | 497 kts | 205° |
| 2026-05-08 14:09 | 11.67554 | 2.58194 | 37817 ft | 497 kts | 205° |
| 2026-05-08 14:09 | 11.61246 | 2.55305 | 37825 ft | 497 kts | 204° |
| 2026-05-08 14:10 | 11.54940 | 2.52420 | 37820 ft | 496 kts | 204° |
| 2026-05-08 14:10 | 11.48628 | 2.49534 | 37804 ft | 496 kts | 204° |
| 2026-05-08 14:11 | 11.42329 | 2.46654 | 37819 ft | 496 kts | 204° |
| 2026-05-08 14:11 | 11.36063 | 2.43791 | 37822 ft | 496 kts | 204° |
| 2026-05-08 14:12 | 11.29757 | 2.40911 | 37807 ft | 496 kts | 204° |
| 2026-05-08 14:12 | 11.23459 | 2.38035 | 37802 ft | 495 kts | 204° |
| 2026-05-08 14:13 | 11.17172 | 2.35167 | 37804 ft | 494 kts | 204° |
| 2026-05-08 14:13 | 11.10896 | 2.32305 | 37821 ft | 494 kts | 204° |
| 2026-05-08 14:14 | 11.04652 | 2.29459 | 37823 ft | 494 kts | 204° |
| 2026-05-08 14:14 | 10.98644 | 2.26078 | 37805 ft | 494 kts | 217° |
| 2026-05-08 14:15 | 10.93236 | 2.21747 | 37805 ft | 495 kts | 219° |
| 2026-05-08 14:15 | 10.87925 | 2.17273 | 37823 ft | 495 kts | 220° |
| 2026-05-08 14:16 | 10.82655 | 2.12819 | 37837 ft | 495 kts | 220° |
| 2026-05-08 14:16 | 10.77340 | 2.08355 | 37838 ft | 495 kts | 220° |
| 2026-05-08 14:17 | 10.72019 | 2.03902 | 37829 ft | 495 kts | 219° |
| 2026-05-08 14:17 | 10.66699 | 1.99454 | 37833 ft | 495 kts | 219° |
| 2026-05-08 14:18 | 10.61379 | 1.95007 | 37840 ft | 495 kts | 220° |
| 2026-05-08 14:18 | 10.56057 | 1.90560 | 37821 ft | 495 kts | 219° |
| 2026-05-08 14:19 | 10.50718 | 1.86100 | 37830 ft | 497 kts | 219° |
| 2026-05-08 14:19 | 10.45374 | 1.81639 | 37835 ft | 497 kts | 219° |
| 2026-05-08 14:20 | 10.40060 | 1.77204 | 37842 ft | 497 kts | 219° |
| 2026-05-08 14:20 | 10.34711 | 1.72743 | 37839 ft | 497 kts | 219° |
| 2026-05-08 14:21 | 10.29360 | 1.68282 | 37838 ft | 497 kts | 219° |
| 2026-05-08 14:21 | 10.24000 | 1.63815 | 37844 ft | 497 kts | 219° |
| 2026-05-08 14:22 | 10.18650 | 1.59358 | 37847 ft | 497 kts | 219° |
| 2026-05-08 14:22 | 10.13331 | 1.54930 | 37842 ft | 497 kts | 219° |
| 2026-05-08 14:23 | 10.07989 | 1.50485 | 37857 ft | 496 kts | 219° |
| 2026-05-08 14:23 | 10.02648 | 1.46043 | 37857 ft | 496 kts | 219° |
| 2026-05-08 14:24 | 9.97313 | 1.41606 | 37862 ft | 496 kts | 219° |
| 2026-05-08 14:24 | 9.91977 | 1.37171 | 37865 ft | 496 kts | 219° |
| 2026-05-08 14:25 | 9.86639 | 1.32737 | 37864 ft | 496 kts | 219° |
| 2026-05-08 14:25 | 9.81302 | 1.28304 | 37949 ft | 496 kts | 219° |
| 2026-05-08 14:26 | 9.75961 | 1.23871 | 37969 ft | 497 kts | 219° |
| 2026-05-08 14:26 | 9.70644 | 1.19460 | 37980 ft | 497 kts | 219° |
| 2026-05-08 14:27 | 9.65297 | 1.15026 | 37975 ft | 497 kts | 219° |
| 2026-05-08 14:27 | 9.59946 | 1.10590 | 37957 ft | 497 kts | 219° |
| 2026-05-08 14:28 | 9.54595 | 1.06156 | 37935 ft | 496 kts | 219° |
| 2026-05-08 14:28 | 9.49234 | 1.01716 | 37911 ft | 496 kts | 219° |
| 2026-05-08 14:29 | 9.43354 | 0.98135 | 37890 ft | 495 kts | 201° |
| 2026-05-08 14:29 | 9.36953 | 0.95579 | 37884 ft | 494 kts | 200° |
| 2026-05-08 14:30 | 9.30537 | 0.93060 | 37890 ft | 494 kts | 200° |
| 2026-05-08 14:30 | 9.24161 | 0.90563 | 37894 ft | 494 kts | 200° |
| 2026-05-08 14:31 | 9.17745 | 0.88054 | 37896 ft | 494 kts | 200° |
| 2026-05-08 14:31 | 9.11326 | 0.85545 | 37898 ft | 494 kts | 200° |
| 2026-05-08 14:32 | 9.01673 | 0.81773 | 37902 ft | 496 kts | 200° |
| 2026-05-08 14:32 | 8.95227 | 0.79256 | 37897 ft | 497 kts | 200° |
| 2026-05-08 14:33 | 8.88778 | 0.76740 | 37907 ft | 497 kts | 200° |
| 2026-05-08 14:33 | 8.82336 | 0.74226 | 37912 ft | 496 kts | 200° |
| 2026-05-08 14:34 | 8.75902 | 0.71717 | 37916 ft | 495 kts | 200° |
| 2026-05-08 14:34 | 8.69472 | 0.69208 | 37918 ft | 495 kts | 200° |
| 2026-05-08 14:35 | 8.63062 | 0.66712 | 37930 ft | 497 kts | 200° |
| 2026-05-08 14:35 | 8.56607 | 0.64196 | 37928 ft | 497 kts | 200° |
| 2026-05-08 14:36 | 8.50157 | 0.61684 | 37924 ft | 497 kts | 200° |
| 2026-05-08 14:36 | 8.43701 | 0.59170 | 37941 ft | 497 kts | 200° |
| 2026-05-08 14:37 | 8.37237 | 0.56655 | 37939 ft | 497 kts | 200° |
| 2026-05-08 14:37 | 8.30826 | 0.54161 | 37943 ft | 498 kts | 200° |
| 2026-05-08 14:38 | 8.24354 | 0.51644 | 37942 ft | 498 kts | 200° |
| 2026-05-08 14:38 | 8.17877 | 0.49126 | 37947 ft | 498 kts | 200° |
| 2026-05-08 14:39 | 8.11398 | 0.46608 | 37949 ft | 498 kts | 200° |
| 2026-05-08 14:39 | 8.04927 | 0.44094 | 37946 ft | 498 kts | 200° |
| 2026-05-08 14:40 | 7.98444 | 0.41576 | 37947 ft | 499 kts | 200° |
| 2026-05-08 14:40 | 7.92004 | 0.39076 | 37953 ft | 498 kts | 200° |
| 2026-05-08 14:41 | 7.85537 | 0.36566 | 37953 ft | 496 kts | 200° |
| 2026-05-08 14:41 | 7.82331 | 0.35322 | 37800 ft | 493 kts | 200° |
| 2026-05-08 14:41 | 7.79128 | 0.34079 | 37339 ft | 491 kts | 200° |
| 2026-05-08 14:42 | 7.75933 | 0.32840 | 36834 ft | 492 kts | 200° |
| 2026-05-08 14:42 | 7.72733 | 0.31599 | 36345 ft | 494 kts | 200° |
| 2026-05-08 14:42 | 7.69519 | 0.30353 | 35858 ft | 496 kts | 200° |
| 2026-05-08 14:42 | 7.66288 | 0.29101 | 35387 ft | 499 kts | 200° |
| 2026-05-08 14:43 | 7.63036 | 0.27841 | 34924 ft | 501 kts | 200° |
| 2026-05-08 14:43 | 7.59773 | 0.26576 | 34477 ft | 503 kts | 200° |
| 2026-05-08 14:43 | 7.56543 | 0.25324 | 34006 ft | 504 kts | 200° |
| 2026-05-08 14:43 | 7.53273 | 0.24057 | 33521 ft | 502 kts | 200° |
| 2026-05-08 14:44 | 7.50015 | 0.22795 | 33008 ft | 499 kts | 200° |
| 2026-05-08 14:44 | 7.46780 | 0.21541 | 32513 ft | 496 kts | 200° |
| 2026-05-08 14:44 | 7.43569 | 0.20297 | 32032 ft | 493 kts | 200° |
| 2026-05-08 14:44 | 7.40380 | 0.19063 | 31559 ft | 489 kts | 200° |
| 2026-05-08 14:45 | 7.37216 | 0.17838 | 31096 ft | 486 kts | 200° |
| 2026-05-08 14:45 | 7.34067 | 0.16619 | 30633 ft | 483 kts | 200° |
| 2026-05-08 14:45 | 7.30934 | 0.15406 | 30181 ft | 480 kts | 200° |
| 2026-05-08 14:45 | 7.27828 | 0.14204 | 29676 ft | 477 kts | 200° |
| 2026-05-08 14:46 | 7.25769 | 0.13408 | 29326 ft | 475 kts | 200° |
| 2026-05-08 14:46 | 7.22690 | 0.12216 | 28805 ft | 471 kts | 200° |
| 2026-05-08 14:46 | 7.19646 | 0.11038 | 28299 ft | 467 kts | 200° |
| 2026-05-08 14:46 | 7.16633 | 0.09873 | 27800 ft | 460 kts | 200° |
| 2026-05-08 14:47 | 7.13652 | 0.08720 | 27305 ft | 458 kts | 200° |
| 2026-05-08 14:47 | 7.10684 | 0.07573 | 26625 ft | 453 kts | 200° |
| 2026-05-08 14:47 | 7.07758 | 0.06441 | 25933 ft | 448 kts | 199° |
| 2026-05-08 14:47 | 7.04861 | 0.05321 | 25425 ft | 446 kts | 199° |
| 2026-05-08 14:48 | 7.01978 | 0.04207 | 24911 ft | 442 kts | 199° |
| 2026-05-08 14:48 | 6.99110 | 0.03099 | 24362 ft | 439 kts | 199° |
| 2026-05-08 14:48 | 6.96265 | 0.01999 | 23832 ft | 435 kts | 199° |
| 2026-05-08 14:48 | 6.93489 | 0.00925 | 23261 ft | 431 kts | 199° |
| 2026-05-08 14:49 | 6.90666 | -0.00165 | 22608 ft | 426 kts | 199° |
| 2026-05-08 14:49 | 6.87946 | -0.01214 | 21992 ft | 423 kts | 199° |
| 2026-05-08 14:49 | 6.85211 | -0.02271 | 21381 ft | 419 kts | 199° |
| 2026-05-08 14:49 | 6.82502 | -0.03317 | 20791 ft | 416 kts | 199° |
| 2026-05-08 14:50 | 6.79812 | -0.04355 | 20307 ft | 412 kts | 199° |
| 2026-05-08 14:50 | 6.77138 | -0.05387 | 19851 ft | 413 kts | 199° |
| 2026-05-08 14:50 | 6.74460 | -0.06421 | 19395 ft | 410 kts | 199° |
| 2026-05-08 14:50 | 6.71812 | -0.07444 | 18934 ft | 406 kts | 199° |
| 2026-05-08 14:51 | 6.69181 | -0.08459 | 18508 ft | 402 kts | 198° |
| 2026-05-08 14:51 | 6.66581 | -0.09461 | 18042 ft | 399 kts | 198° |
| 2026-05-08 14:51 | 6.63939 | -0.10259 | 17531 ft | 392 kts | 187° |
| 2026-05-08 14:51 | 6.61245 | -0.10359 | 17040 ft | 385 kts | 173° |
| 2026-05-08 14:52 | 6.58594 | -0.10115 | 16546 ft | 382 kts | 171° |
| 2026-05-08 14:52 | 6.53344 | -0.09571 | 15591 ft | 376 kts | 171° |
| 2026-05-08 14:52 | 6.50746 | -0.09309 | 15124 ft | 374 kts | 170° |
| 2026-05-08 14:53 | 6.48160 | -0.09048 | 14682 ft | 373 kts | 170° |
| 2026-05-08 14:53 | 6.45583 | -0.08791 | 14210 ft | 370 kts | 170° |
| 2026-05-08 14:53 | 6.43039 | -0.08539 | 13779 ft | 365 kts | 169° |
| 2026-05-08 14:53 | 6.40520 | -0.08290 | 13267 ft | 361 kts | 169° |
| 2026-05-08 14:54 | 6.38041 | -0.08046 | 12819 ft | 354 kts | 169° |
| 2026-05-08 14:54 | 6.35616 | -0.07808 | 12404 ft | 347 kts | 169° |
| 2026-05-08 14:54 | 6.33225 | -0.07572 | 12002 ft | 343 kts | 169° |
| 2026-05-08 14:54 | 6.30874 | -0.07339 | 11603 ft | 336 kts | 169° |
| 2026-05-08 14:55 | 6.28574 | -0.07112 | 11245 ft | 328 kts | 169° |
| 2026-05-08 14:55 | 6.26334 | -0.06891 | 10899 ft | 320 kts | 168° |
| 2026-05-08 14:55 | 6.24143 | -0.06674 | 10564 ft | 313 kts | 168° |
| 2026-05-08 14:55 | 6.22003 | -0.06464 | 10230 ft | 306 kts | 168° |
| 2026-05-08 14:56 | 6.19903 | -0.06256 | 9887 ft | 300 kts | 168° |
| 2026-05-08 14:56 | 6.17841 | -0.06053 | 9522 ft | 295 kts | 168° |
| 2026-05-08 14:56 | 6.15813 | -0.05848 | 9155 ft | 291 kts | 169° |
| 2026-05-08 14:56 | 6.13792 | -0.05645 | 8806 ft | 293 kts | 169° |
| 2026-05-08 14:57 | 6.11790 | -0.05447 | 8438 ft | 292 kts | 170° |
| 2026-05-08 14:57 | 6.09771 | -0.05252 | 8059 ft | 289 kts | 170° |
| 2026-05-08 14:57 | 6.07781 | -0.05056 | 7693 ft | 286 kts | 171° |
| 2026-05-08 14:57 | 6.05796 | -0.04858 | 7340 ft | 285 kts | 171° |
| 2026-05-08 14:58 | 6.03827 | -0.04660 | 6989 ft | 284 kts | 171° |
| 2026-05-08 14:58 | 6.01866 | -0.04466 | 6645 ft | 283 kts | 172° |
| 2026-05-08 14:58 | 5.99910 | -0.04270 | 6268 ft | 281 kts | 172° |
| 2026-05-08 14:58 | 5.97968 | -0.04076 | 5987 ft | 279 kts | 172° |
| 2026-05-08 14:59 | 5.96085 | -0.03895 | 5905 ft | 264 kts | 172° |
| 2026-05-08 14:59 | 5.92600 | -0.03699 | 5608 ft | 247 kts | 185° |
| 2026-05-08 14:59 | 5.90944 | -0.04160 | 5242 ft | 248 kts | 199° |
| 2026-05-08 15:00 | 5.89346 | -0.04810 | 4887 ft | 247 kts | 202° |
| 2026-05-08 15:00 | 5.87765 | -0.05476 | 4533 ft | 246 kts | 202° |
| 2026-05-08 15:00 | 5.86183 | -0.06140 | 4174 ft | 245 kts | 202° |
| 2026-05-08 15:00 | 5.84640 | -0.06783 | 3952 ft | 239 kts | 202° |
| 2026-05-08 15:01 | 5.83157 | -0.07401 | 3923 ft | 225 kts | 202° |
| 2026-05-08 15:01 | 5.81720 | -0.07994 | 3935 ft | 222 kts | 202° |
| 2026-05-08 15:01 | 5.80292 | -0.08582 | 3917 ft | 222 kts | 202° |
| 2026-05-08 15:01 | 5.78907 | -0.09144 | 3788 ft | 207 kts | 201° |
| 2026-05-08 15:02 | 5.77593 | -0.09666 | 3513 ft | 200 kts | 202° |
| 2026-05-08 15:02 | 5.76322 | -0.10191 | 3234 ft | 195 kts | 202° |
| 2026-05-08 15:02 | 5.75080 | -0.10704 | 2964 ft | 190 kts | 203° |
| 2026-05-08 15:02 | 5.73876 | -0.11202 | 2708 ft | 184 kts | 202° |
| 2026-05-08 15:03 | 5.72714 | -0.11681 | 2492 ft | 175 kts | 201° |
| 2026-05-08 15:03 | 5.71617 | -0.12134 | 2267 ft | 165 kts | 202° |
| 2026-05-08 15:03 | 5.70590 | -0.12557 | 2065 ft | 157 kts | 205° |
| 2026-05-08 15:03 | 5.69593 | -0.12973 | 1842 ft | 154 kts | 202° |
| 2026-05-08 15:04 | 5.68596 | -0.13382 | 1664 ft | 155 kts | 204° |
| 2026-05-08 15:04 | 5.67592 | -0.13801 | 1444 ft | 156 kts | 201° |
| 2026-05-08 15:04 | 5.66580 | -0.14216 | 1276 ft | 165 kts | 203° |
| 2026-05-08 15:04 | 5.65538 | -0.14631 | 1095 ft | 154 kts | 202° |
| 2026-05-08 15:05 | 5.64578 | -0.15022 | 906 ft | 145 kts | 202° |
| 2026-05-08 15:05 | 5.63654 | -0.15403 | 661 ft | 149 kts | 204° |
| 2026-05-08 15:05 | 5.62663 | -0.15830 | 466 ft | 160 kts | 202° |
| 2026-05-08 15:05 | 5.61666 | -0.16244 | 272 ft | 148 kts | 200° |
| 2026-05-08 15:06 | 5.60773 | -0.16614 | 231 ft | 118 kts | 202° |
| 2026-05-08 15:06 | 5.60252 | -0.16834 | 219 ft | 53 kts | 202° |
| 2026-05-08 15:06 | 5.60047 | -0.16921 | 223 ft | 13 kts | 206° |
| 2026-05-08 15:06 | 5.59962 | -0.16975 | 219 ft | 16 kts | 219° |
| 2026-05-08 15:07 | 5.59881 | -0.17058 | 221 ft | 16 kts | 233° |
| 2026-05-08 15:07 | 5.59837 | -0.17117 | 221 ft | 7 kts | 234° |
| 2026-05-08 15:07 | 5.59833 | -0.17170 | 219 ft | 9 kts | 291° |
| 2026-05-08 15:07 | 5.59883 | -0.17187 | 218 ft | 8 kts | 11° |
| 2026-05-08 15:08 | 5.59946 | -0.17168 | 220 ft | 11 kts | 17° |
| 2026-05-08 15:08 | 5.59998 | -0.17148 | 223 ft | 13 kts | 22° |
| 2026-05-08 15:08 | 5.60129 | -0.17094 | 218 ft | 16 kts | 22° |
| 2026-05-08 15:08 | 5.60224 | -0.17060 | 225 ft | 7 kts | 359° |
| 2026-05-08 15:09 | 5.60260 | -0.17083 | 226 ft | 6 kts | 309° |
| 2026-05-08 15:09 | 5.60279 | -0.17128 | 220 ft | 6 kts | 291° |
| 2026-05-08 15:09 | 5.60282 | -0.17136 | 219 ft | 0 kts | 291° |